Time;durP1;ratioP1;P1;durP2;ratioP2;P2;SDS_P1;SDS_P2;PMS_P1;PMS_P2;Temp;Humidity;BMP_temperature;BMP_pressure;BME280_temperature;BME280_humidity;BME280_pressure;Samples;Min_cycle;Max_cycle;Signal;HPM_P1;HPM_P2
2022/02/16 00:02:09;;;;;;;3.63;1.43;;;9.00;1.00;;;;;;5092966;28;20252;-75
2022/02/16 00:04:36;;;;;;;3.90;1.03;;;9.00;1.00;;;;;;5092402;28;20571;-75
2022/02/16 00:07:03;;;;;;;3.90;1.07;;;9.00;1.00;;;;;;5092730;28;20205;-75
2022/02/16 00:09:30;;;;;;;2.80;1.67;;;9.00;1.00;;;;;;5092099;28;20255;-75
2022/02/16 00:11:57;;;;;;;2.53;0.97;;;9.00;1.00;;;;;;5092964;28;20254;-75
2022/02/16 00:14:24;;;;;;;3.53;1.47;;;9.00;1.00;;;;;;5092865;28;20237;-75
2022/02/16 00:16:52;;;;;;;4.13;1.03;;;9.00;1.00;;;;;;5092220;28;20206;-75
2022/02/16 00:19:19;;;;;;;1.70;0.90;;;9.00;1.00;;;;;;5092689;28;20250;-75
2022/02/16 00:21:47;;;;;;;3.23;1.00;;;9.00;1.00;;;;;;5092149;28;20201;-75
2022/02/16 00:24:14;;;;;;;1.97;1.07;;;9.00;1.00;;;;;;5092329;28;20627;-75
2022/02/16 00:26:41;;;;;;;1.60;0.80;;;9.00;1.00;;;;;;5091819;28;20738;-75
2022/02/16 00:29:11;;;;;;;2.43;0.90;;;9.10;1.00;;;;;;5092239;28;20615;-74
2022/02/16 00:31:38;;;;;;;4.67;1.90;;;9.10;1.00;;;;;;5092056;28;20204;-76
2022/02/16 00:34:07;;;;;;;2.57;1.00;;;9.10;1.00;;;;;;5091979;28;20817;-76
2022/02/16 00:36:34;;;;;;;3.63;1.00;;;9.10;1.00;;;;;;5091593;28;20576;-76
2022/02/16 00:39:01;;;;;;;2.10;0.90;;;9.10;1.00;;;;;;5092077;28;20263;-76
2022/02/16 00:41:30;;;;;;;2.17;1.20;;;9.10;1.00;;;;;;5092370;28;20205;-76
2022/02/16 00:43:57;;;;;;;2.07;1.00;;;9.10;1.00;;;;;;5092227;28;20209;-75
2022/02/16 00:46:24;;;;;;;2.40;0.83;;;9.10;1.00;;;;;;5092160;28;20205;-75
2022/02/16 00:48:51;;;;;;;2.00;0.70;;;9.10;1.00;;;;;;5091725;28;20259;-75
2022/02/16 00:51:19;;;;;;;1.57;0.80;;;9.10;1.00;;;;;;5091696;28;20282;-75
2022/02/16 00:53:46;;;;;;;2.47;1.13;;;9.10;1.00;;;;;;5090743;28;20237;-75
2022/02/16 00:56:14;;;;;;;5.87;1.20;;;9.10;1.00;;;;;;5091809;28;20617;-75
2022/02/16 00:58:41;;;;;;;2.30;0.83;;;9.10;1.00;;;;;;5091246;28;20208;-75
2022/02/16 01:01:08;;;;;;;3.07;1.33;;;9.10;1.00;;;;;;5091749;28;20722;-74
2022/02/16 01:03:36;;;;;;;1.90;0.90;;;9.10;1.00;;;;;;5091170;28;20201;-75
2022/02/16 01:06:03;;;;;;;5.07;0.97;;;9.10;1.00;;;;;;5091443;28;20240;-75
2022/02/16 01:08:32;;;;;;;2.07;1.10;;;9.10;1.00;;;;;;5091180;28;20596;-75
2022/02/16 01:10:59;;;;;;;3.00;0.90;;;9.10;1.00;;;;;;5091971;28;20274;-75
2022/02/16 01:13:26;;;;;;;2.13;0.60;;;9.10;1.00;;;;;;5091842;28;20286;-75
2022/02/16 01:15:53;;;;;;;3.00;1.20;;;9.10;1.00;;;;;;5091253;28;20197;-75
2022/02/16 01:18:20;;;;;;;2.03;0.60;;;9.10;1.00;;;;;;5091451;28;20247;-75
2022/02/16 01:20:47;;;;;;;2.80;1.77;;;9.10;1.00;;;;;;5090744;28;20201;-75
2022/02/16 01:23:14;;;;;;;1.30;0.77;;;9.10;1.00;;;;;;5091419;28;20278;-76
2022/02/16 01:25:43;;;;;;;2.50;0.73;;;9.10;1.00;;;;;;5091102;28;20200;-76
2022/02/16 01:28:10;;;;;;;5.60;1.10;;;9.10;1.00;;;;;;5091223;28;20198;-76
2022/02/16 01:30:37;;;;;;;6.13;1.03;;;9.10;1.00;;;;;;5090898;28;20726;-76
2022/02/16 01:33:04;;;;;;;1.13;0.50;;;9.10;1.00;;;;;;5091069;28;20221;-76
2022/02/16 01:35:31;;;;;;;1.23;1.13;;;9.10;1.00;;;;;;5090287;28;20557;-76
2022/02/16 01:37:58;;;;;;;2.53;0.93;;;9.10;1.00;;;;;;5091603;28;20201;-76
2022/02/16 01:40:25;;;;;;;1.70;0.87;;;9.10;1.00;;;;;;5091649;28;20202;-77
2022/02/16 01:42:53;;;;;;;4.80;1.37;;;9.10;1.00;;;;;;5090721;28;20201;-74
2022/02/16 01:45:25;;;;;;;2.53;1.03;;;9.10;1.00;;;;;;5090292;28;20283;-73
2022/02/16 01:47:52;;;;;;;2.17;0.73;;;9.10;1.00;;;;;;5070419;28;20206;-75
2022/02/16 01:50:19;;;;;;;2.77;2.07;;;9.10;1.00;;;;;;5070818;28;20210;-72
2022/02/16 01:52:46;;;;;;;2.07;0.73;;;9.10;1.00;;;;;;5070238;28;20684;-78
2022/02/16 01:55:14;;;;;;;2.30;1.23;;;9.10;1.00;;;;;;5070559;28;20652;-75
2022/02/16 01:57:41;;;;;;;1.10;0.83;;;9.10;1.00;;;;;;5070346;28;20210;-76
2022/02/16 02:00:10;;;;;;;2.17;0.77;;;9.10;1.00;;;;;;5070740;28;20280;-75
2022/02/16 02:02:37;;;;;;;2.00;0.80;;;9.10;1.00;;;;;;5070232;28;20205;-76
2022/02/16 02:05:05;;;;;;;0.90;0.70;;;9.10;1.00;;;;;;5070523;28;20698;-76
2022/02/16 02:07:35;;;;;;;1.20;0.67;;;9.10;1.00;;;;;;5074592;28;20206;-76
2022/02/16 02:10:04;;;;;;;4.90;0.60;;;9.10;1.00;;;;;;5074612;28;20206;-76
2022/02/16 02:12:31;;;;;;;3.33;0.70;;;9.10;1.00;;;;;;5074372;28;20673;-78
2022/02/16 02:14:58;;;;;;;3.03;1.30;;;9.10;1.00;;;;;;5074655;28;20229;-78
2022/02/16 02:17:26;;;;;;;2.03;0.80;;;9.10;1.00;;;;;;5074963;28;20256;-76
2022/02/16 02:19:53;;;;;;;3.37;1.30;;;9.10;1.00;;;;;;5074151;28;20203;-76
2022/02/16 02:22:22;;;;;;;1.60;0.83;;;9.10;1.00;;;;;;5074447;28;20259;-76
2022/02/16 02:24:49;;;;;;;1.97;1.00;;;9.10;1.00;;;;;;5073988;28;20714;-75
2022/02/16 02:27:16;;;;;;;2.07;0.97;;;9.10;1.00;;;;;;5074308;28;20202;-74
2022/02/16 02:29:43;;;;;;;6.37;1.10;;;9.10;1.00;;;;;;5074033;28;20533;-74
2022/02/16 02:32:10;;;;;;;7.17;0.87;;;9.10;1.00;;;;;;5074285;28;20202;-74
2022/02/16 02:34:37;;;;;;;4.10;1.10;;;9.10;1.00;;;;;;5073468;28;20767;-77
2022/02/16 02:37:04;;;;;;;3.57;1.13;;;9.10;1.00;;;;;;5074170;28;20259;-75
2022/02/16 02:39:33;;;;;;;1.37;1.00;;;9.20;1.00;;;;;;5073703;28;20198;-73
2022/02/16 02:42:00;;;;;;;2.17;1.10;;;9.20;1.00;;;;;;5073999;28;20202;-73
2022/02/16 02:44:27;;;;;;;1.97;0.70;;;9.20;1.00;;;;;;5074634;28;20255;-77
2022/02/16 02:46:54;;;;;;;3.10;0.80;;;9.20;1.00;;;;;;5074072;28;20209;-78
2022/02/16 02:49:21;;;;;;;2.33;1.13;;;9.30;1.00;;;;;;5073734;28;20248;-74
2022/02/16 02:51:48;;;;;;;3.53;0.83;;;9.30;1.00;;;;;;5073680;28;20198;-74
2022/02/16 02:54:15;;;;;;;1.57;1.10;;;9.30;1.00;;;;;;5073797;28;20238;-74
2022/02/16 02:56:44;;;;;;;1.00;0.60;;;9.30;1.00;;;;;;5073481;28;20209;-74
2022/02/16 02:59:11;;;;;;;1.80;0.77;;;9.30;1.00;;;;;;5073795;28;20284;-75
2022/02/16 03:01:41;;;;;;;1.27;0.80;;;9.30;1.00;;;;;;5073172;28;20255;-75
2022/02/16 03:04:08;;;;;;;1.27;0.63;;;9.30;1.00;;;;;;5073803;28;20202;-75
2022/02/16 03:06:35;;;;;;;2.37;1.00;;;9.30;1.00;;;;;;5073335;28;20251;-74
2022/02/16 03:09:02;;;;;;;2.50;0.70;;;9.30;1.00;;;;;;5073445;28;20247;-74
2022/02/16 03:11:29;;;;;;;1.73;0.67;;;9.30;1.00;;;;;;5073223;28;20669;-74
2022/02/16 03:13:57;;;;;;;1.90;0.60;;;9.30;1.00;;;;;;5073898;28;20230;-74
2022/02/16 03:16:24;;;;;;;5.47;2.77;;;9.30;1.00;;;;;;5073208;28;20259;-74
2022/02/16 03:18:51;;;;;;;3.87;1.40;;;9.30;1.00;;;;;;5073177;28;20202;-73
2022/02/16 03:21:18;;;;;;;1.40;0.73;;;9.30;1.00;;;;;;5073275;28;20624;-73
2022/02/16 03:23:45;;;;;;;1.17;0.87;;;9.30;1.00;;;;;;5072906;28;20321;-73
2022/02/16 03:26:12;;;;;;;2.23;0.67;;;9.30;1.00;;;;;;5073207;28;20249;-74
2022/02/16 03:28:39;;;;;;;6.13;0.70;;;9.30;1.00;;;;;;5073094;28;20202;-73
2022/02/16 03:31:08;;;;;;;1.13;0.73;;;9.30;1.00;;;;;;5072962;28;20689;-75
2022/02/16 03:33:35;;;;;;;2.20;0.90;;;9.30;1.00;;;;;;5072689;28;20206;-77
2022/02/16 03:36:01;;;;;;;2.80;0.83;;;9.30;1.00;;;;;;5073113;28;20230;-76
2022/02/16 03:38:29;;;;;;;1.50;0.80;;;9.30;1.00;;;;;;5073329;28;20264;-76
2022/02/16 03:40:56;;;;;;;1.10;0.90;;;9.30;1.00;;;;;;5073444;28;20206;-76
2022/02/16 03:43:23;;;;;;;3.40;0.90;;;9.30;1.00;;;;;;5073139;28;20202;-77
2022/02/16 03:45:50;;;;;;;4.07;0.73;;;9.30;1.00;;;;;;5072273;28;20255;-73
2022/02/16 03:48:19;;;;;;;0.43;0.40;;;9.30;1.00;;;;;;5072908;28;20207;-80
2022/02/16 03:50:46;;;;;;;2.13;0.90;;;9.30;1.00;;;;;;5072475;28;20251;-79
2022/02/16 03:53:13;;;;;;;2.40;0.67;;;9.30;1.00;;;;;;5072911;28;20245;-79
2022/02/16 03:55:40;;;;;;;0.73;0.50;;;9.30;1.00;;;;;;5072404;28;20351;-79
2022/02/16 03:58:07;;;;;;;2.27;0.70;;;9.30;1.00;;;;;;5072525;28;20697;-79
2022/02/16 04:00:33;;;;;;;1.70;0.80;;;9.30;1.00;;;;;;5072146;28;20658;-78
2022/02/16 04:03:07;;;;;;;3.50;1.23;;;9.30;1.00;;;;;;5072743;28;20610;-81
2022/02/16 04:05:36;;;;;;;1.70;0.70;;;9.20;1.00;;;;;;5072959;28;20206;-81
2022/02/16 04:08:03;;;;;;;3.87;0.80;;;9.20;1.00;;;;;;5073666;28;20202;-82
2022/02/16 04:10:31;;;;;;;0.90;0.70;;;9.20;1.00;;;;;;5091869;28;20204;-82
2022/02/16 04:12:58;;;;;;;3.70;0.90;;;9.30;1.00;;;;;;5113912;28;20244;-81
2022/02/16 04:15:25;;;;;;;3.50;1.03;;;9.20;1.00;;;;;;5109769;28;20225;-81
2022/02/16 04:17:52;;;;;;;1.80;0.70;;;9.20;1.00;;;;;;5093252;28;20275;-82
2022/02/16 04:20:19;;;;;;;1.07;0.60;;;9.20;1.00;;;;;;5111395;28;20201;-80
2022/02/16 04:22:49;;;;;;;2.33;0.80;;;9.20;1.00;;;;;;5112121;28;20212;-80
2022/02/16 04:25:17;;;;;;;2.53;0.80;;;9.20;1.00;;;;;;5112232;27;20589;-79
2022/02/16 04:27:45;;;;;;;2.30;0.57;;;9.20;1.00;;;;;;5106079;28;20209;-78
2022/02/16 04:30:12;;;;;;;1.67;0.70;;;9.20;1.00;;;;;;5109942;28;20205;-79
2022/02/16 04:32:40;;;;;;;4.63;1.00;;;9.20;1.00;;;;;;5112252;28;20201;-76
2022/02/16 04:35:08;;;;;;;1.47;0.83;;;9.20;1.00;;;;;;5112184;28;20356;-80
2022/02/16 04:37:35;;;;;;;1.10;0.53;;;9.10;1.00;;;;;;5111979;28;20205;-80
2022/02/16 04:40:04;;;;;;;1.43;0.90;;;9.10;1.00;;;;;;5112108;28;20258;-78
2022/02/16 04:42:31;;;;;;;1.53;0.70;;;9.10;1.00;;;;;;5111971;28;20736;-77
2022/02/16 04:44:58;;;;;;;2.77;0.70;;;9.00;1.00;;;;;;5111771;28;20239;-78
2022/02/16 04:47:25;;;;;;;1.73;0.73;;;9.10;1.00;;;;;;5112542;28;20281;-78
2022/02/16 04:49:52;;;;;;;4.83;1.73;;;9.10;1.00;;;;;;5111728;28;20208;-77
2022/02/16 04:52:19;;;;;;;0.90;0.70;;;9.10;1.00;;;;;;5112187;28;21133;-77
2022/02/16 04:54:46;;;;;;;1.50;0.80;;;9.10;1.00;;;;;;5111496;28;20655;-78
2022/02/16 04:57:14;;;;;;;0.90;0.90;;;9.10;1.00;;;;;;5111784;28;20204;-76
2022/02/16 04:59:41;;;;;;;6.80;1.13;;;9.10;1.00;;;;;;5110951;28;20261;-77
2022/02/16 05:02:08;;;;;;;1.13;0.80;;;9.20;1.00;;;;;;5111485;27;20200;-78
2022/02/16 05:04:35;;;;;;;8.30;2.43;;;9.20;1.00;;;;;;5103527;28;20262;-78
2022/02/16 05:07:02;;;;;;;0.73;0.50;;;9.10;1.00;;;;;;5109931;28;20209;-78
2022/02/16 05:09:29;;;;;;;2.73;0.93;;;9.10;1.00;;;;;;5101452;28;20206;-76
2022/02/16 05:11:56;;;;;;;0.63;0.63;;;9.10;1.00;;;;;;5092176;28;20213;-81
2022/02/16 05:14:25;;;;;;;3.07;1.20;;;9.10;1.00;;;;;;5092155;28;20229;-82
2022/02/16 05:16:52;;;;;;;1.93;1.03;;;9.20;1.00;;;;;;5108024;28;20201;-82
2022/02/16 05:19:18;;;;;;;4.37;1.37;;;9.20;1.00;;;;;;5112397;27;20532;-83
2022/02/16 05:21:45;;;;;;;3.10;1.00;;;9.10;1.00;;;;;;5111708;28;20261;-81
2022/02/16 05:24:12;;;;;;;1.50;0.80;;;9.20;1.00;;;;;;5111841;28;20205;-79
2022/02/16 05:26:39;;;;;;;2.70;1.67;;;9.20;1.00;;;;;;5095915;28;20668;-81
2022/02/16 05:29:07;;;;;;;0.77;0.77;;;9.30;1.00;;;;;;5098405;28;20656;-79
2022/02/16 05:31:36;;;;;;;2.87;1.10;;;9.30;1.00;;;;;;5110914;28;20201;-78
2022/02/16 05:34:03;;;;;;;1.93;1.20;;;9.30;1.00;;;;;;5111366;28;20196;-79
2022/02/16 05:36:30;;;;;;;2.53;0.70;;;9.30;1.00;;;;;;5110858;28;20258;-78
2022/02/16 05:38:57;;;;;;;1.87;1.07;;;9.30;1.00;;;;;;5111346;28;20237;-78
2022/02/16 05:41:24;;;;;;;1.90;1.27;;;9.30;1.00;;;;;;5111302;28;20231;-78
2022/02/16 05:43:51;;;;;;;4.57;1.10;;;9.30;1.00;;;;;;5110675;28;20250;-78
2022/02/16 05:46:18;;;;;;;1.90;1.07;;;9.30;1.00;;;;;;5111041;28;20623;-75
2022/02/16 05:48:46;;;;;;;1.87;0.60;;;9.20;1.00;;;;;;5110660;28;20265;-78
2022/02/16 05:51:13;;;;;;;1.27;1.00;;;9.20;1.00;;;;;;5110928;28;20209;-77
2022/02/16 05:53:40;;;;;;;1.10;0.87;;;9.10;1.00;;;;;;5096365;28;20265;-78
2022/02/16 05:56:07;;;;;;;3.60;0.80;;;9.10;1.00;;;;;;5110461;28;20285;-78
2022/02/16 05:58:34;;;;;;;1.00;0.90;;;9.00;1.00;;;;;;5094082;28;20213;-78
2022/02/16 06:01:02;;;;;;;2.97;1.10;;;9.00;1.00;;;;;;5090364;28;20258;-79
2022/02/16 06:03:29;;;;;;;2.40;1.00;;;8.90;95.10;;;;;;5104514;28;20664;-75
2022/02/16 06:05:58;;;;;;;3.50;1.17;;;8.90;99.90;;;;;;5092660;28;20214;-77
2022/02/16 06:08:25;;;;;;;2.73;1.13;;;8.90;99.90;;;;;;5107264;28;20233;-75
2022/02/16 06:10:56;;;;;;;2.37;1.13;;;8.90;1.00;;;;;;5098632;28;20254;-76
2022/02/16 06:13:23;;;;;;;2.77;0.97;;;8.80;1.00;;;;;;5111030;28;20208;-81
2022/02/16 06:15:50;;;;;;;0.90;0.83;;;8.90;1.00;;;;;;5110626;28;20855;-84
2022/02/16 06:18:17;;;;;;;1.43;0.90;;;8.80;1.00;;;;;;5111504;28;20716;-80
2022/02/16 06:20:44;;;;;;;2.93;1.30;;;8.80;1.00;;;;;;5100843;28;20217;-80
2022/02/16 06:23:12;;;;;;;3.33;0.70;;;8.80;1.00;;;;;;5091097;28;20262;-81
2022/02/16 06:25:39;;;;;;;2.03;0.97;;;8.80;99.90;;;;;;5089465;28;20209;-79
2022/02/16 06:28:06;;;;;;;1.37;0.77;;;8.90;99.90;;;;;;5089695;28;20201;-79
2022/02/16 06:30:33;;;;;;;0.77;0.57;;;8.90;99.90;;;;;;5090180;28;20251;-80
2022/02/16 06:33:00;;;;;;;2.23;1.10;;;8.90;99.90;;;;;;5090608;28;20202;-76
2022/02/16 06:35:27;;;;;;;2.03;1.00;;;8.90;1.00;;;;;;5090859;28;20259;-82
2022/02/16 06:37:54;;;;;;;0.63;0.63;;;8.90;1.00;;;;;;5090973;28;20643;-81
2022/02/16 06:40:23;;;;;;;1.77;0.77;;;8.80;1.00;;;;;;5090393;28;20677;-81
2022/02/16 06:42:50;;;;;;;1.10;0.60;;;8.80;1.00;;;;;;5090368;28;20205;-81
2022/02/16 06:45:17;;;;;;;1.57;0.80;;;8.80;1.00;;;;;;5090930;28;20665;-82
2022/02/16 06:47:44;;;;;;;2.67;0.93;;;8.80;1.00;;;;;;5089538;28;20259;-81
2022/02/16 06:50:11;;;;;;;2.20;0.93;;;8.80;1.00;;;;;;5090548;28;20237;-81
2022/02/16 06:52:38;;;;;;;2.37;0.77;;;8.80;1.00;;;;;;5093000;28;20214;-75
2022/02/16 06:55:06;;;;;;;3.97;1.20;;;8.80;1.00;;;;;;5094356;28;20221;-83
2022/02/16 06:57:34;;;;;;;4.93;1.43;;;8.80;1.00;;;;;;5094386;28;20626;-82
2022/02/16 07:00:01;;;;;;;4.63;1.17;;;8.80;1.00;;;;;;5094560;28;20201;-82
2022/02/16 07:02:28;;;;;;;2.73;1.53;;;8.80;1.00;;;;;;5094544;28;20201;-82
2022/02/16 07:04:55;;;;;;;4.63;1.30;;;8.80;1.00;;;;;;5094810;28;20219;-81
2022/02/16 07:07:22;;;;;;;2.10;0.77;;;8.80;1.00;;;;;;5094550;28;20205;-82
2022/02/16 07:09:49;;;;;;;3.00;1.80;;;8.90;1.00;;;;;;5093934;28;20229;-82
2022/02/16 07:12:16;;;;;;;2.27;1.30;;;8.80;1.00;;;;;;5094625;28;20243;-81
2022/02/16 07:14:47;;;;;;;4.83;1.87;;;8.80;1.00;;;;;;5093904;28;20242;-79
2022/02/16 07:17:14;;;;;;;4.17;1.73;;;8.90;1.00;;;;;;5093890;28;20260;-81
2022/02/16 07:19:41;;;;;;;2.27;1.20;;;8.90;1.00;;;;;;5097032;28;20202;-78
2022/02/16 07:22:08;;;;;;;3.13;0.83;;;8.90;1.00;;;;;;5094266;28;20255;-82
2022/02/16 07:24:35;;;;;;;7.30;1.60;;;8.90;1.00;;;;;;5099896;28;20205;-80
2022/02/16 07:27:03;;;;;;;3.97;1.00;;;8.90;1.00;;;;;;5109980;28;20201;-79
2022/02/16 07:29:30;;;;;;;1.17;0.83;;;9.00;1.00;;;;;;5113243;28;20243;-78
2022/02/16 07:31:58;;;;;;;1.83;0.90;;;9.00;1.00;;;;;;5113770;28;20655;-78
2022/02/16 07:34:27;;;;;;;3.73;1.10;;;9.00;1.00;;;;;;5113472;28;20205;-78
2022/02/16 07:36:54;;;;;;;3.77;1.43;;;9.10;1.00;;;;;;5113015;28;20630;-78
2022/02/16 07:39:26;;;;;;;1.20;1.10;;;9.10;1.00;;;;;;5113386;28;20676;-75
2022/02/16 07:41:54;;;;;;;3.63;1.20;;;9.10;1.00;;;;;;5113339;28;20208;-75
2022/02/16 07:44:21;;;;;;;2.93;1.20;;;9.20;1.00;;;;;;5112729;28;20201;-75
2022/02/16 07:46:48;;;;;;;2.27;0.90;;;9.10;1.00;;;;;;5113577;28;20274;-80
2022/02/16 07:49:16;;;;;;;1.97;0.93;;;9.20;1.00;;;;;;5113670;28;20635;-80
2022/02/16 07:51:43;;;;;;;1.23;1.13;;;9.20;1.00;;;;;;5113038;28;20246;-79
2022/02/16 07:54:10;;;;;;;1.17;0.67;;;9.20;1.00;;;;;;5113524;27;20217;-79
2022/02/16 07:56:38;;;;;;;1.87;0.70;;;9.30;1.00;;;;;;5112957;28;20233;-78
2022/02/16 07:59:05;;;;;;;4.63;1.40;;;9.30;1.00;;;;;;5113688;28;20201;-80
2022/02/16 08:01:32;;;;;;;9.33;4.33;;;9.30;1.00;;;;;;5112918;28;20208;-79
2022/02/16 08:04:15;;;;;;;5.40;3.03;;;9.30;1.00;;;;;;5113262;27;20204;-75
2022/02/16 08:06:45;;;;;;;4.77;1.30;;;9.40;1.00;;;;;;5112686;28;20212;-76
2022/02/16 08:09:12;;;;;;;1.73;0.80;;;9.40;1.00;;;;;;5113247;28;20261;-79
2022/02/16 08:11:39;;;;;;;1.93;0.90;;;9.40;1.00;;;;;;5113004;28;20205;-78
2022/02/16 08:14:07;;;;;;;5.07;1.13;;;9.50;1.00;;;;;;5113242;28;20254;-77
2022/02/16 08:16:35;;;;;;;3.90;0.90;;;9.60;1.00;;;;;;5112589;28;20283;-78
2022/02/16 08:19:03;;;;;;;1.30;1.00;;;9.60;1.00;;;;;;5110086;28;20208;-78
2022/02/16 08:21:30;;;;;;;4.60;1.37;;;9.60;1.00;;;;;;5097573;28;20704;-78
2022/02/16 08:23:59;;;;;;;1.67;0.80;;;9.70;1.00;;;;;;5104358;28;20729;-78
2022/02/16 08:26:26;;;;;;;2.30;1.00;;;9.70;1.00;;;;;;5112799;28;20216;-78
2022/02/16 08:28:53;;;;;;;1.77;1.13;;;9.80;99.90;;;;;;5112388;28;20258;-77
2022/02/16 08:31:20;;;;;;;1.43;0.93;;;9.80;99.90;;;;;;5112869;28;20258;-73
2022/02/16 08:33:47;;;;;;;2.23;1.00;;;9.80;99.90;;;;;;5112185;28;20242;-75
2022/02/16 08:36:14;;;;;;;1.97;1.07;;;9.90;1.00;;;;;;5112163;28;20228;-77
2022/02/16 08:38:42;;;;;;;4.00;2.07;;;9.90;1.00;;;;;;5112468;28;20205;-82
2022/02/16 08:41:13;;;;;;;2.83;1.40;;;10.00;1.00;;;;;;5091949;28;20270;-84
2022/02/16 08:43:40;;;;;;;3.90;1.20;;;10.00;1.00;;;;;;5094599;28;20217;-83
2022/02/16 08:46:08;;;;;;;2.60;1.17;;;10.10;1.00;;;;;;5092138;28;20259;-83
2022/02/16 08:48:35;;;;;;;2.50;1.47;;;10.20;1.00;;;;;;5092136;28;20221;-82
2022/02/16 08:51:02;;;;;;;1.57;1.00;;;10.20;1.00;;;;;;5102949;28;20200;-83
2022/02/16 08:53:29;;;;;;;2.67;0.80;;;10.20;1.00;;;;;;5096954;28;20213;-74
2022/02/16 08:55:56;;;;;;;1.17;0.77;;;10.20;1.00;;;;;;5092715;28;20282;-78
2022/02/16 08:58:25;;;;;;;2.00;0.97;;;10.30;1.00;;;;;;5092237;28;20201;-82
2022/02/16 09:00:52;;;;;;;3.63;0.97;;;10.40;1.00;;;;;;5092763;28;20254;-83
2022/02/16 09:03:20;;;;;;;5.73;2.17;;;10.50;1.00;;;;;;5096261;28;20235;-82
2022/02/16 09:05:47;;;;;;;1.70;0.70;;;10.50;1.00;;;;;;5091829;28;20205;-83
2022/02/16 09:08:14;;;;;;;1.10;0.90;;;10.60;1.00;;;;;;5092320;28;20205;-82
2022/02/16 09:10:42;;;;;;;1.67;1.33;;;10.60;1.00;;;;;;5097016;28;20253;-82
2022/02/16 09:13:09;;;;;;;0.83;0.80;;;10.70;1.00;;;;;;5112283;28;20197;-82
2022/02/16 09:15:37;;;;;;;2.03;0.80;;;10.70;1.00;;;;;;5111454;28;20228;-82
2022/02/16 09:18:06;;;;;;;1.63;1.00;;;10.70;1.00;;;;;;5112492;28;20197;-81
2022/02/16 09:20:33;;;;;;;1.10;0.80;;;10.70;1.00;;;;;;5111817;28;20266;-80
2022/02/16 09:23:01;;;;;;;3.83;1.27;;;10.80;1.00;;;;;;5112232;28;20265;-78
2022/02/16 09:25:28;;;;;;;2.17;0.70;;;10.80;1.00;;;;;;5092567;28;20681;-82
2022/02/16 09:27:55;;;;;;;2.93;1.00;;;10.90;1.00;;;;;;5093290;28;20210;-81
2022/02/16 09:30:22;;;;;;;2.50;1.03;;;11.00;1.00;;;;;;5108168;28;20250;-82
2022/02/16 09:32:51;;;;;;;0.50;0.40;;;11.00;1.00;;;;;;5111453;28;20544;-79
2022/02/16 09:35:18;;;;;;;3.50;0.80;;;10.90;1.00;;;;;;5101756;28;20271;-82
2022/02/16 09:37:45;;;;;;;2.50;1.97;;;10.90;1.00;;;;;;5091018;28;20241;-80
2022/02/16 09:40:12;;;;;;;2.97;1.00;;;11.00;1.00;;;;;;5091481;28;20201;-79
2022/02/16 09:42:41;;;;;;;1.67;0.63;;;11.10;1.00;;;;;;5091068;28;20247;-80
2022/02/16 09:45:10;;;;;;;4.03;0.80;;;11.30;1.00;;;;;;5091316;28;20634;-80
2022/02/16 09:47:41;;;;;;;1.23;0.60;;;11.40;1.00;;;;;;5090638;28;20205;-81
2022/02/16 09:50:11;;;;;;;0.97;0.70;;;11.40;1.00;;;;;;5091031;28;20201;-80
2022/02/16 09:52:39;;;;;;;1.07;0.97;;;11.50;1.00;;;;;;5090580;28;20650;-82
2022/02/16 09:55:06;;;;;;;4.63;1.17;;;11.60;1.00;;;;;;5090972;28;20259;-79
2022/02/16 09:57:33;;;;;;;2.83;0.83;;;11.70;1.00;;;;;;5092761;28;20320;-80
2022/02/16 10:00:00;;;;;;;3.50;1.10;;;11.90;1.00;;;;;;5093233;28;20273;-81
2022/02/16 10:02:36;;;;;;;1.77;1.47;;;12.00;1.00;;;;;;5091155;28;20206;-74
2022/02/16 10:05:04;;;;;;;2.70;1.60;;;12.10;1.00;;;;;;5090975;28;20205;-81
2022/02/16 10:07:35;;;;;;;2.13;1.57;;;12.10;1.00;;;;;;5090803;28;20206;-80
2022/02/16 10:10:13;;;;;;;2.30;1.80;;;12.20;1.00;;;;;;5090959;28;20208;-82
2022/02/16 10:12:44;;;;;;;3.43;1.13;;;12.40;1.00;;;;;;5090469;28;20209;-81
2022/02/16 10:15:12;;;;;;;1.07;1.00;;;12.70;1.00;;;;;;5093381;28;20201;-82
2022/02/16 10:17:40;;;;;;;1.90;1.60;;;12.80;1.00;;;;;;5110430;28;20238;-80
2022/02/16 10:20:09;;;;;;;3.05;2.05;;;12.90;1.00;;;;;;5092118;28;20289;-78
2022/02/16 10:22:43;;;;;;;2.28;1.98;;;13.00;1.00;;;;;;5085009;28;20202;-76
2022/02/16 10:25:16;;;;;;;1.98;1.25;;;13.00;1.00;;;;;;5086140;28;20189;-76
2022/02/16 10:28:11;;;;;;;1.67;1.10;;;12.90;1.00;;;;;;5095646;28;20224;-79
2022/02/16 10:30:42;;;;;;;1.77;1.65;;;12.80;1.00;;;;;;5102160;28;20299;-76
2022/02/16 10:33:24;;;;;;;8.32;1.40;;;12.80;1.00;;;;;;5078363;28;20198;-80
2022/02/16 10:35:59;;;;;;;2.70;1.63;;;13.10;1.00;;;;;;5086218;28;20256;-77
2022/02/16 10:38:27;;;;;;;5.60;2.83;;;13.20;1.00;;;;;;5088326;28;20255;-84
2022/02/16 10:41:04;;;;;;;2.75;1.83;;;13.40;1.00;;;;;;5085650;28;20558;-85
2022/02/16 10:43:33;;;;;;;2.55;1.88;;;13.20;1.00;;;;;;5082522;28;20263;-75
2022/02/16 10:46:00;;;;;;;1.23;1.13;;;13.00;1.00;;;;;;5090936;28;20206;-83
2022/02/16 10:48:27;;;;;;;6.00;1.30;;;12.90;1.00;;;;;;5095454;28;20206;-81
2022/02/16 10:50:54;;;;;;;1.45;1.35;;;13.00;1.00;;;;;;5106689;28;20215;-81
2022/02/16 10:53:29;;;;;;;1.23;1.13;;;13.40;1.00;;;;;;5106676;28;20220;-80
2022/02/16 10:55:57;;;;;;;7.80;4.65;;;13.60;1.00;;;;;;5095587;28;20204;-83
2022/02/16 10:58:26;;;;;;;9.10;6.03;;;14.00;1.00;;;;;;5095025;28;20197;-79
2022/02/16 11:00:55;;;;;;;5.82;3.65;;;14.10;1.00;;;;;;5079285;28;20198;-76
2022/02/16 11:03:29;;;;;;;2.33;1.70;;;14.20;1.00;;;;;;5084246;28;20300;-80
2022/02/16 11:05:58;;;;;;;4.60;3.45;;;14.40;1.00;;;;;;5096306;28;20243;-82
2022/02/16 11:08:28;;;;;;;2.92;2.35;;;14.60;1.00;;;;;;5088684;28;20217;-82
2022/02/16 11:10:55;;;;;;;1.52;1.30;;;14.30;1.00;;;;;;5088846;28;20206;-81
2022/02/16 11:13:26;;;;;;;1.63;1.10;;;14.30;1.00;;;;;;5076001;28;20247;-84
2022/02/16 11:15:54;;;;;;;1.60;1.17;;;14.50;1.00;;;;;;5088326;28;20205;-83
2022/02/16 11:18:22;;;;;;;1.70;0.82;;;14.50;1.00;;;;;;5085486;28;20315;-81
2022/02/16 11:21:08;;;;;;;0.80;0.68;;;14.30;1.00;;;;;;5075618;28;20206;-83
2022/02/16 11:23:44;;;;;;;1.00;0.70;;;14.20;1.00;;;;;;5086992;28;20197;-79
2022/02/16 11:26:31;;;;;;;1.83;1.13;;;14.10;1.00;;;;;;5084583;28;20197;-85
2022/02/16 11:28:59;;;;;;;2.65;0.70;;;14.30;1.00;;;;;;5077820;28;20193;-84
2022/02/16 11:31:28;;;;;;;1.33;0.93;;;14.20;1.00;;;;;;5083519;28;20206;-77
2022/02/16 11:34:15;;;;;;;0.80;0.73;;;13.90;1.00;;;;;;5092140;28;20199;-78
2022/02/16 11:36:53;;;;;;;1.52;0.57;;;13.70;1.00;;;;;;5074406;28;20236;-82
2022/02/16 11:40:02;;;;;;;0.85;0.70;;;13.60;1.00;;;;;;5087952;28;20201;-82
2022/02/16 11:42:53;;;;;;;4.32;0.47;;;13.90;1.00;;;;;;5047527;28;20250;-82
2022/02/16 11:45:21;;;;;;;0.70;0.30;;;13.90;1.00;;;;;;5044093;28;20729;-79
2022/02/16 11:47:53;;;;;;;1.95;0.80;;;13.70;1.00;;;;;;5094792;28;20790;-79
2022/02/16 11:50:36;;;;;;;0.60;0.60;;;13.70;1.00;;;;;;5113974;27;20196;-82
2022/02/16 11:53:05;;;;;;;0.40;0.40;;;13.90;1.00;;;;;;5112379;28;20208;-80
2022/02/16 11:55:35;;;;;;;2.92;1.40;;;14.10;1.00;;;;;;5101532;28;20205;-79
2022/02/16 11:58:22;;;;;;;0.60;0.55;;;14.10;1.00;;;;;;5107554;28;20278;-79
2022/02/16 12:01:08;;;;;;;0.80;0.50;;;14.30;1.00;;;;;;5089832;28;20664;-81
2022/02/16 12:03:37;;;;;;;0.60;0.47;;;14.40;1.00;;;;;;5084307;28;20652;-81
2022/02/16 12:06:09;;;;;;;1.23;0.75;;;14.50;1.00;;;;;;5095740;28;20695;-82
2022/02/16 12:08:39;;;;;;;0.75;0.75;;;14.60;1.00;;;;;;5099019;28;20262;-83
2022/02/16 12:11:19;;;;;;;1.10;0.55;;;14.60;1.00;;;;;;5101139;28;20206;-72
2022/02/16 12:13:48;;;;;;;0.95;0.85;;;14.40;1.00;;;;;;5091771;28;20748;-83
2022/02/16 12:16:20;;;;;;;1.15;0.60;;;14.30;1.00;;;;;;5092822;28;20205;-82
2022/02/16 12:18:48;;;;;;;1.73;0.40;;;14.30;1.00;;;;;;5096120;28;20569;-82
2022/02/16 12:21:25;;;;;;;0.77;0.52;;;14.60;1.00;;;;;;5092800;28;20210;-83
2022/02/16 12:23:59;;;;;;;0.73;0.43;;;14.80;1.00;;;;;;5107091;28;20254;-84
2022/02/16 12:26:29;;;;;;;1.08;0.50;;;15.00;1.00;;;;;;5096176;28;20194;-83
2022/02/16 12:28:59;;;;;;;1.75;0.50;;;14.80;1.00;;;;;;5087517;28;20204;-79
2022/02/16 12:31:29;;;;;;;1.10;0.60;;;14.50;1.00;;;;;;5104186;28;20379;-83
2022/02/16 12:33:59;;;;;;;0.60;0.30;;;14.70;1.00;;;;;;5088829;28;20205;-80
2022/02/16 12:36:27;;;;;;;0.80;0.40;;;15.00;1.00;;;;;;5112931;28;20197;-82
2022/02/16 12:38:56;;;;;;;1.67;0.60;;;15.20;1.00;;;;;;5097780;28;20213;-85
2022/02/16 12:41:23;;;;;;;7.05;0.73;;;15.30;1.00;;;;;;5091961;28;20695;-78
2022/02/16 12:43:54;;;;;;;0.30;0.30;;;15.60;1.00;;;;;;5096345;28;20201;-78
2022/02/16 12:46:22;;;;;;;0.73;0.40;;;15.70;1.00;;;;;;5085578;28;20205;-75
2022/02/16 12:48:50;;;;;;;1.85;0.50;;;16.00;1.00;;;;;;5110989;28;20213;-79
2022/02/16 12:51:25;;;;;;;1.42;0.52;;;15.90;1.00;;;;;;5071589;28;20741;-80
2022/02/16 12:53:52;;;;;;;0.68;0.30;;;15.80;1.00;;;;;;5090959;28;20281;-83
2022/02/16 12:56:20;;;;;;;0.32;0.32;;;15.90;1.00;;;;;;5091367;28;20681;-86
2022/02/16 12:58:48;;;;;;;0.93;0.90;;;15.90;1.00;;;;;;5089658;28;20205;-83
2022/02/16 13:01:16;;;;;;;0.80;0.40;;;16.10;1.00;;;;;;5093361;28;20270;-84
2022/02/16 13:03:44;;;;;;;2.30;0.40;;;16.10;1.00;;;;;;5092620;28;20201;-84
2022/02/16 13:06:11;;;;;;;0.40;0.20;;;15.60;1.00;;;;;;5093417;28;20338;-82
2022/02/16 13:08:40;;;;;;;1.02;0.50;;;15.20;1.00;;;;;;5094524;28;20205;-81
2022/02/16 13:11:07;;;;;;;0.25;0.25;;;15.20;1.00;;;;;;5089584;28;20198;-79